Uitenhage, South Africa
Current Conditions -  °F | °C
As of 11:00 AM on Thursday 27 Nov 2014 (Local Time) from FAPE Reporting Station
Scattered Clouds Scattered Clouds  
Wind Chill: 77°   Ceiling: Unl
Heat Index: 79°   Visibility: 6mi
Dew Point: 57°   Wind: 14mph
Humidity: 50%   Direction: 230°SW
Pressure: 29.77"   Gusts: NA
Location:  33.76°S, 25.39°E
Report Text: FAPE 270900Z 23012KT 9999 SCT045 25/14 Q1008 NOSIG
Loading
Personal Weather Stations






























Interactive Weather Map New forecast layout! Learn more

10-Day Weather Forecast

Advertisements
Track Severe Weather on mobile